Time;durP1;ratioP1;P1;durP2;ratioP2;P2;SDS_P1;SDS_P2;PMS_P1;PMS_P2;Temp;Humidity;BMP_temperature;BMP_pressure;BME280_temperature;BME280_humidity;BME280_pressure;Samples;Min_cycle;Max_cycle;Signal;HPM_P1;HPM_P2
2023/05/18 00:00:00;;;;;;;0.17;0.17;;;10.90;99.90;;;;;;5089351;28;20031;-73
2023/05/18 00:02:26;;;;;;;0.15;0.15;;;10.90;99.90;;;;;;5103505;28;20284;-76
2023/05/18 00:04:52;;;;;;;0.10;0.10;;;10.80;99.90;;;;;;5105077;28;20023;-73
2023/05/18 00:07:18;;;;;;;0.10;0.10;;;10.80;99.90;;;;;;5100112;28;20100;-76
2023/05/18 00:09:43;;;;;;;0.10;0.10;;;10.80;99.90;;;;;;5102954;28;20065;-76
2023/05/18 00:12:09;;;;;;;0.20;0.20;;;10.80;99.90;;;;;;5099520;28;20040;-72
2023/05/18 00:14:35;;;;;;;0.20;0.20;;;10.80;99.90;;;;;;5101033;28;20043;-73
2023/05/18 00:17:01;;;;;;;0.10;0.10;;;10.90;99.90;;;;;;5099493;28;20537;-73
2023/05/18 00:19:29;;;;;;;0.10;0.10;;;10.80;99.90;;;;;;5088929;28;20028;-73
2023/05/18 00:21:55;;;;;;;0.13;0.13;;;10.80;99.90;;;;;;5086284;28;20478;-73
2023/05/18 00:24:21;;;;;;;0.20;0.20;;;10.80;99.90;;;;;;5086795;28;20254;-73
2023/05/18 00:26:54;;;;;;;0.20;0.20;;;10.90;99.90;;;;;;5084426;28;20032;-72
2023/05/18 00:29:19;;;;;;;0.10;0.10;;;10.90;99.90;;;;;;5090531;28;20025;-73
2023/05/18 00:31:48;;;;;;;0.10;0.10;;;10.90;99.90;;;;;;5094446;28;20030;-73
2023/05/18 00:34:14;;;;;;;0.10;0.10;;;10.90;99.90;;;;;;5093096;28;20028;-73
2023/05/18 00:36:40;;;;;;;0.17;0.17;;;10.90;99.90;;;;;;5093482;28;20040;-72
2023/05/18 00:39:10;;;;;;;0.20;0.20;;;10.90;99.90;;;;;;5094531;28;20020;-74
2023/05/18 00:41:36;;;;;;;0.20;0.20;;;10.80;99.90;;;;;;5098232;28;20012;-73
2023/05/18 00:44:03;;;;;;;0.20;0.20;;;10.70;99.90;;;;;;5095473;28;20541;-73
2023/05/18 00:46:31;;;;;;;0.10;0.10;;;10.60;99.90;;;;;;5087921;28;20142;-74
2023/05/18 00:48:57;;;;;;;0.13;0.13;;;10.60;99.90;;;;;;5091753;28;20024;-73
2023/05/18 00:51:24;;;;;;;0.10;0.10;;;10.50;99.90;;;;;;5084570;28;20028;-75
2023/05/18 00:53:53;;;;;;;0.10;0.10;;;10.50;99.90;;;;;;5092588;28;20023;-74
2023/05/18 00:56:22;;;;;;;0.10;0.10;;;10.50;99.90;;;;;;5093187;28;20025;-74
2023/05/18 00:58:51;;;;;;;0.10;0.10;;;10.50;99.90;;;;;;5091250;28;20093;-73
2023/05/18 01:01:18;;;;;;;0.10;0.10;;;10.50;99.90;;;;;;5091082;28;20032;-73
2023/05/18 01:03:46;;;;;;;0.10;0.10;;;10.40;99.90;;;;;;5086058;28;20111;-76
2023/05/18 01:06:13;;;;;;;0.10;0.10;;;10.80;99.90;;;;;;5095349;28;20031;-75
2023/05/18 01:08:40;;;;;;;0.05;0.05;;;10.40;99.90;;;;;;5096366;28;20032;-73
2023/05/18 01:11:31;;;;;;;0.13;0.13;;;10.40;99.90;;;;;;5091412;28;20404;-72
2023/05/18 01:14:07;;;;;;;0.10;0.10;;;10.40;99.90;;;;;;5088296;28;20020;-73
2023/05/18 01:17:10;;;;;;;0.10;0.10;;;10.30;99.90;;;;;;5086635;28;20385;-73
2023/05/18 01:19:38;;;;;;;0.10;0.10;;;10.30;99.90;;;;;;5022000;28;20025;-73
2023/05/18 01:22:31;;;;;;;0.20;0.20;;;11.30;99.90;;;;;;5005082;28;20041;-73
2023/05/18 01:25:03;;;;;;;0.15;0.15;;;10.30;99.90;;;;;;5006489;28;20022;-73
2023/05/18 01:27:36;;;;;;;0.10;0.10;;;10.20;99.90;;;;;;5025856;28;20021;-75
2023/05/18 01:30:03;;;;;;;0.10;0.10;;;10.30;99.90;;;;;;5029928;28;20034;-73
2023/05/18 01:32:30;;;;;;;0.10;0.10;;;13.90;99.90;;;;;;5018722;28;20029;-75
2023/05/18 01:34:55;;;;;;;0.10;0.10;;;10.30;99.90;;;;;;5033435;28;20025;-74
2023/05/18 01:37:24;;;;;;;0.20;0.20;;;10.20;99.90;;;;;;5029167;28;20029;-74
2023/05/18 01:39:50;;;;;;;0.10;0.10;;;10.20;99.90;;;;;;5026666;28;20080;-74
2023/05/18 01:42:22;;;;;;;0.10;0.10;;;10.20;99.90;;;;;;5023149;28;20038;-74
2023/05/18 01:44:53;;;;;;;0.20;0.20;;;10.20;99.90;;;;;;5025533;28;20067;-76
2023/05/18 01:47:19;;;;;;;0.10;0.10;;;10.20;99.90;;;;;;5025454;28;20559;-83
2023/05/18 01:49:47;;;;;;;0.10;0.10;;;10.20;99.90;;;;;;5026977;28;20037;-78
2023/05/18 01:52:35;;;;;;;0.10;0.10;;;10.20;99.90;;;;;;5021277;28;20559;-75
2023/05/18 01:55:05;;;;;;;0.00;0.00;;;10.20;99.90;;;;;;5052103;28;20116;-74
2023/05/18 01:57:33;;;;;;;0.10;0.10;;;10.10;99.90;;;;;;5090980;28;20024;-74
2023/05/18 01:59:59;;;;;;;0.10;0.10;;;10.10;99.90;;;;;;5089255;28;20111;-74
2023/05/18 02:02:26;;;;;;;0.00;0.00;;;10.20;99.90;;;;;;5089250;28;20023;-76
2023/05/18 02:04:52;;;;;;;0.10;0.10;;;10.20;99.90;;;;;;5093345;28;20605;-75
2023/05/18 02:07:18;;;;;;;0.45;0.45;;;10.20;99.90;;;;;;5089690;28;20059;-75
2023/05/18 02:09:43;;;;;;;0.10;0.10;;;10.30;99.90;;;;;;5088274;28;20291;-74
2023/05/18 02:12:10;;;;;;;0.10;0.10;;;10.30;99.90;;;;;;5090539;28;20032;-74
2023/05/18 02:14:36;;;;;;;0.10;0.10;;;10.40;99.90;;;;;;5087380;28;20076;-76
2023/05/18 02:17:02;;;;;;;0.10;0.10;;;10.40;99.90;;;;;;5089386;28;20060;-76
2023/05/18 02:19:29;;;;;;;0.20;0.20;;;10.40;99.90;;;;;;5086816;28;20028;-74
2023/05/18 02:21:56;;;;;;;0.28;0.28;;;10.30;99.90;;;;;;5087385;28;20365;-74
2023/05/18 02:24:23;;;;;;;0.20;0.20;;;10.40;99.90;;;;;;5082743;28;20016;-74
2023/05/18 02:26:50;;;;;;;0.20;0.20;;;10.40;99.90;;;;;;5088808;28;20366;-75
2023/05/18 02:29:16;;;;;;;0.10;0.10;;;10.40;99.90;;;;;;5085992;28;20295;-74
2023/05/18 02:31:42;;;;;;;0.10;0.10;;;10.70;99.90;;;;;;5088583;28;20032;-75
2023/05/18 02:34:09;;;;;;;0.10;0.10;;;10.40;99.90;;;;;;5090116;28;20284;-75
2023/05/18 02:36:41;;;;;;;0.10;0.10;;;10.40;99.90;;;;;;5089303;28;20417;-74
2023/05/18 02:39:09;;;;;;;0.10;0.10;;;10.50;99.90;;;;;;5090524;28;20474;-74
2023/05/18 02:41:36;;;;;;;0.10;0.10;;;10.50;99.90;;;;;;5089987;28;20024;-75
2023/05/18 02:44:05;;;;;;;0.10;0.10;;;10.60;99.90;;;;;;5093224;28;20031;-75
2023/05/18 02:46:31;;;;;;;0.20;0.20;;;10.50;99.90;;;;;;5087414;28;20568;-74
2023/05/18 02:48:57;;;;;;;0.20;0.20;;;10.50;99.90;;;;;;5091065;28;20529;-77
2023/05/18 02:51:23;;;;;;;0.20;0.20;;;10.50;99.90;;;;;;5096929;28;20036;-75
2023/05/18 02:53:50;;;;;;;0.20;0.20;;;10.50;99.90;;;;;;5091247;28;20308;-77
2023/05/18 02:56:19;;;;;;;0.20;0.20;;;10.50;99.90;;;;;;5087129;28;20107;-76
2023/05/18 02:58:45;;;;;;;0.10;0.10;;;10.40;99.90;;;;;;5092302;28;20498;-75
2023/05/18 03:01:12;;;;;;;0.10;0.10;;;10.40;99.90;;;;;;5098467;28;20061;-74
2023/05/18 03:03:40;;;;;;;0.10;0.10;;;10.40;99.90;;;;;;5090732;28;20061;-74
2023/05/18 03:06:07;;;;;;;0.17;0.17;;;10.30;99.90;;;;;;5096304;28;20019;-72
2023/05/18 03:08:35;;;;;;;0.20;0.20;;;10.20;99.90;;;;;;5096899;28;20288;-75
2023/05/18 03:11:01;;;;;;;0.15;0.15;;;10.20;99.90;;;;;;5095396;28;20544;-72
2023/05/18 03:13:27;;;;;;;0.20;0.20;;;10.20;99.90;;;;;;5091003;28;20076;-75
2023/05/18 03:15:55;;;;;;;0.10;0.10;;;10.20;99.90;;;;;;5098835;28;20076;-73
2023/05/18 03:18:21;;;;;;;0.10;0.10;;;10.20;99.90;;;;;;5104058;28;20477;-76
2023/05/18 03:20:48;;;;;;;0.20;0.20;;;10.20;99.90;;;;;;5104109;28;20019;-76
2023/05/18 03:23:14;;;;;;;0.10;0.10;;;8.60;99.90;;;;;;5104317;28;20575;-74
2023/05/18 03:25:42;;;;;;;0.20;0.20;;;10.30;99.90;;;;;;5102244;28;20036;-75
2023/05/18 03:28:07;;;;;;;0.10;0.10;;;10.30;99.90;;;;;;5104700;28;20031;-75
2023/05/18 03:30:33;;;;;;;0.10;0.10;;;10.30;99.90;;;;;;5106083;28;20028;-77
2023/05/18 03:33:02;;;;;;;0.10;0.10;;;10.40;99.90;;;;;;5100533;28;20028;-73
2023/05/18 03:35:28;;;;;;;0.20;0.20;;;10.30;99.90;;;;;;5097326;28;20028;-76
2023/05/18 03:37:54;;;;;;;0.10;0.10;;;10.30;99.90;;;;;;5105133;28;20024;-75
2023/05/18 03:40:20;;;;;;;0.15;0.15;;;10.40;99.90;;;;;;5104323;28;20494;-74
2023/05/18 03:42:46;;;;;;;0.20;0.20;;;10.40;99.90;;;;;;5105317;28;20036;-76
2023/05/18 03:45:12;;;;;;;0.20;0.20;;;10.40;99.90;;;;;;5105986;28;20606;-76
2023/05/18 03:47:39;;;;;;;0.20;0.20;;;10.40;99.90;;;;;;5105027;28;20514;-73
2023/05/18 03:50:07;;;;;;;0.20;0.20;;;10.30;99.90;;;;;;5105807;28;20076;-77
2023/05/18 03:52:40;;;;;;;0.22;0.22;;;10.30;99.90;;;;;;5105669;28;20513;-77
2023/05/18 03:55:07;;;;;;;0.10;0.10;;;11.30;99.90;;;;;;5102649;28;20040;-77
2023/05/18 03:57:33;;;;;;;0.10;0.10;;;10.30;99.90;;;;;;5093937;28;20462;-74
2023/05/18 03:59:59;;;;;;;0.10;0.10;;;10.40;99.90;;;;;;5100687;28;20149;-77
2023/05/18 04:02:24;;;;;;;0.20;0.20;;;10.40;99.90;;;;;;5090486;28;20529;-74
2023/05/18 04:04:52;;;;;;;0.20;0.20;;;10.40;99.90;;;;;;5094259;28;20059;-75
2023/05/18 04:07:23;;;;;;;0.17;0.17;;;10.40;99.90;;;;;;5095915;28;20320;-75
2023/05/18 04:09:50;;;;;;;0.20;0.20;;;10.40;99.90;;;;;;5091897;28;20028;-78
2023/05/18 04:12:16;;;;;;;0.20;0.20;;;10.40;99.90;;;;;;5102703;28;20020;-77
2023/05/18 04:14:42;;;;;;;0.20;0.20;;;13.90;99.90;;;;;;5102553;28;20020;-75
2023/05/18 04:17:08;;;;;;;0.10;0.10;;;10.30;99.90;;;;;;5098298;28;20505;-76
2023/05/18 04:19:35;;;;;;;0.10;0.10;;;10.30;99.90;;;;;;5102949;28;20311;-75
2023/05/18 04:22:03;;;;;;;0.10;0.10;;;10.20;99.90;;;;;;5104647;28;20031;-78
2023/05/18 04:24:31;;;;;;;0.10;0.10;;;10.20;99.90;;;;;;5111665;28;20024;-74
2023/05/18 04:26:58;;;;;;;0.13;0.13;;;10.20;99.90;;;;;;5104016;28;20024;-75
2023/05/18 04:29:24;;;;;;;0.20;0.20;;;10.20;99.90;;;;;;5102278;28;20023;-75
2023/05/18 04:31:49;;;;;;;0.10;0.10;;;10.30;99.90;;;;;;5090837;28;20028;-75
2023/05/18 04:34:18;;;;;;;0.10;0.10;;;10.10;99.90;;;;;;5100845;28;20016;-76
2023/05/18 04:37:09;;;;;;;0.10;0.10;;;10.20;99.90;;;;;;5081835;28;20052;-78
2023/05/18 04:39:38;;;;;;;0.10;0.10;;;10.10;99.90;;;;;;5081214;28;20043;-80
2023/05/18 04:42:04;;;;;;;0.20;0.20;;;10.10;99.90;;;;;;5084027;28;20016;-75
2023/05/18 04:44:33;;;;;;;0.10;0.10;;;10.20;99.90;;;;;;5082549;28;20056;-77
2023/05/18 04:47:00;;;;;;;4.18;4.03;;;10.20;99.90;;;;;;5080105;28;20036;-77
2023/05/18 04:49:27;;;;;;;1.20;1.20;;;10.10;99.90;;;;;;5078698;28;20043;-77
2023/05/18 04:51:54;;;;;;;0.20;0.20;;;10.10;99.90;;;;;;5074066;28;20544;-75
2023/05/18 04:54:24;;;;;;;0.20;0.20;;;10.50;99.90;;;;;;5076067;28;20136;-75
2023/05/18 04:56:51;;;;;;;0.95;0.95;;;10.10;99.90;;;;;;5074981;28;20063;-74
2023/05/18 04:59:17;;;;;;;0.10;0.10;;;10.10;99.90;;;;;;5075117;28;20031;-75
2023/05/18 05:01:44;;;;;;;0.20;0.20;;;10.20;99.90;;;;;;5074327;28;20066;-75
2023/05/18 05:04:09;;;;;;;0.20;0.20;;;10.20;99.90;;;;;;5065305;28;20040;-74
2023/05/18 05:06:35;;;;;;;0.10;0.10;;;10.20;99.90;;;;;;5067824;28;20021;-75
2023/05/18 05:09:01;;;;;;;0.20;0.20;;;10.20;99.90;;;;;;5091045;28;20523;-76
2023/05/18 05:11:27;;;;;;;0.20;0.20;;;10.20;99.90;;;;;;5098242;28;20031;-75
2023/05/18 05:13:53;;;;;;;0.10;0.10;;;10.20;99.90;;;;;;5100969;28;20024;-75
2023/05/18 05:16:18;;;;;;;0.10;0.10;;;10.20;99.90;;;;;;5096710;28;20024;-74
2023/05/18 05:18:44;;;;;;;0.20;0.20;;;10.20;99.90;;;;;;5099132;28;20070;-75
2023/05/18 05:21:10;;;;;;;0.30;0.30;;;10.20;99.90;;;;;;5088848;28;20222;-74
2023/05/18 05:23:36;;;;;;;0.10;0.10;;;10.20;99.90;;;;;;5092917;28;20080;-76
2023/05/18 05:26:01;;;;;;;0.20;0.20;;;10.20;99.90;;;;;;5094771;28;20023;-76
2023/05/18 05:28:30;;;;;;;0.20;0.20;;;10.20;99.90;;;;;;5092056;28;20255;-76
2023/05/18 05:30:56;;;;;;;0.20;0.20;;;10.00;99.90;;;;;;5091525;28;20058;-75
2023/05/18 05:33:24;;;;;;;0.10;0.10;;;10.20;99.90;;;;;;5096007;28;20028;-77
2023/05/18 05:35:50;;;;;;;0.20;0.20;;;10.20;99.90;;;;;;5090585;28;20139;-73
2023/05/18 05:38:16;;;;;;;1.80;1.75;;;10.30;99.90;;;;;;5093938;28;20111;-75
2023/05/18 05:40:44;;;;;;;0.20;0.20;;;10.30;99.90;;;;;;5098599;28;20050;-75
2023/05/18 05:43:12;;;;;;;0.20;0.20;;;10.20;99.90;;;;;;5097145;28;20020;-77
2023/05/18 05:45:42;;;;;;;0.10;0.10;;;10.30;99.90;;;;;;5087428;28;20024;-74
2023/05/18 05:48:12;;;;;;;0.20;0.20;;;10.20;99.90;;;;;;5096222;28;20088;-76
2023/05/18 05:50:38;;;;;;;0.20;0.20;;;10.30;99.90;;;;;;5092571;28;20032;-74
2023/05/18 05:53:06;;;;;;;0.10;0.10;;;10.30;99.90;;;;;;5084991;28;20031;-75
2023/05/18 05:55:32;;;;;;;0.20;0.20;;;10.30;99.90;;;;;;5081477;28;20054;-75
2023/05/18 05:57:58;;;;;;;0.10;0.10;;;10.30;99.90;;;;;;5084995;28;20068;-74
2023/05/18 06:00:26;;;;;;;0.20;0.20;;;10.40;99.90;;;;;;5088072;28;20330;-74
2023/05/18 06:02:52;;;;;;;0.20;0.20;;;10.40;99.90;;;;;;5089223;28;20020;-80
2023/05/18 06:05:19;;;;;;;0.10;0.10;;;10.40;99.90;;;;;;5090026;28;20103;-75
2023/05/18 06:07:45;;;;;;;0.17;0.17;;;10.40;99.90;;;;;;5089475;28;20078;-74
2023/05/18 06:10:11;;;;;;;0.05;0.05;;;10.20;99.90;;;;;;5085185;28;20032;-76
2023/05/18 06:12:36;;;;;;;0.17;0.17;;;10.40;99.90;;;;;;5085973;28;20032;-75
2023/05/18 06:15:02;;;;;;;1.08;1.08;;;10.40;99.90;;;;;;5088827;28;20205;-75
2023/05/18 06:17:29;;;;;;;0.10;0.10;;;10.40;99.90;;;;;;5089011;28;20134;-75
2023/05/18 06:19:55;;;;;;;0.10;0.10;;;10.40;99.90;;;;;;5092288;28;20069;-77
2023/05/18 06:22:22;;;;;;;0.10;0.10;;;10.40;99.90;;;;;;5093093;28;20040;-79
2023/05/18 06:24:48;;;;;;;0.20;0.20;;;10.40;99.90;;;;;;5090578;28;20078;-75
2023/05/18 06:27:15;;;;;;;0.10;0.10;;;10.40;99.90;;;;;;5090576;28;20020;-74
2023/05/18 06:29:41;;;;;;;0.13;0.13;;;10.40;99.90;;;;;;5085639;28;20036;-74
2023/05/18 06:32:07;;;;;;;0.20;0.20;;;10.40;99.90;;;;;;5087987;28;20433;-74
2023/05/18 06:34:32;;;;;;;0.20;0.20;;;10.40;99.90;;;;;;5092939;28;20297;-81
2023/05/18 06:36:58;;;;;;;0.10;0.10;;;11.00;99.90;;;;;;5088474;28;20089;-74
2023/05/18 06:39:25;;;;;;;0.63;0.63;;;10.30;99.90;;;;;;5086741;28;20016;-76
2023/05/18 06:41:51;;;;;;;0.20;0.20;;;10.30;99.90;;;;;;5088592;28;20036;-79
2023/05/18 06:44:16;;;;;;;0.20;0.20;;;10.20;99.90;;;;;;5091246;28;20027;-75
2023/05/18 06:46:42;;;;;;;0.10;0.10;;;10.20;99.90;;;;;;5093703;28;20144;-80
2023/05/18 06:49:08;;;;;;;0.20;0.20;;;10.20;99.90;;;;;;5097699;28;20020;-74
2023/05/18 06:51:34;;;;;;;0.20;0.20;;;10.20;99.90;;;;;;5096519;28;20042;-76
2023/05/18 06:54:00;;;;;;;0.10;0.10;;;10.20;99.90;;;;;;5094675;28;20512;-77
2023/05/18 06:56:25;;;;;;;0.10;0.10;;;10.30;99.90;;;;;;5095236;28;20065;-74
2023/05/18 06:58:51;;;;;;;0.10;0.10;;;10.30;99.90;;;;;;5093471;28;20513;-74
2023/05/18 07:01:18;;;;;;;0.10;0.10;;;10.40;99.90;;;;;;5096391;28;20035;-75
2023/05/18 07:03:43;;;;;;;0.20;0.20;;;10.50;99.90;;;;;;5095302;28;20028;-75
2023/05/18 07:06:09;;;;;;;0.22;0.22;;;10.50;99.90;;;;;;5095881;28;20300;-74
2023/05/18 07:08:38;;;;;;;0.10;0.10;;;10.50;99.90;;;;;;5092996;28;20194;-74
2023/05/18 07:11:04;;;;;;;0.17;0.17;;;10.50;99.90;;;;;;5096490;28;20097;-75
2023/05/18 07:13:30;;;;;;;0.20;0.20;;;10.50;99.90;;;;;;5094798;28;20302;-75
2023/05/18 07:15:56;;;;;;;0.20;0.20;;;10.40;99.90;;;;;;5088498;28;20021;-78
2023/05/18 07:18:22;;;;;;;0.10;0.10;;;10.50;99.90;;;;;;5097674;28;20665;-75
2023/05/18 07:20:47;;;;;;;37.45;34.42;;;10.50;99.90;;;;;;5090637;28;20074;-74
2023/05/18 07:23:13;;;;;;;0.10;0.10;;;10.40;99.90;;;;;;5095804;28;20020;-76
2023/05/18 07:25:39;;;;;;;0.20;0.20;;;10.40;99.90;;;;;;5093784;28;20039;-74
2023/05/18 07:28:05;;;;;;;0.20;0.20;;;10.50;99.90;;;;;;5092117;28;20020;-74
2023/05/18 07:30:30;;;;;;;0.20;0.20;;;10.40;99.90;;;;;;5093478;28;20039;-75
2023/05/18 07:32:56;;;;;;;0.10;0.10;;;10.50;99.90;;;;;;5093395;28;20032;-75
2023/05/18 07:35:25;;;;;;;0.20;0.20;;;10.40;99.90;;;;;;5092512;28;20019;-75
2023/05/18 07:37:52;;;;;;;0.20;0.20;;;10.40;99.90;;;;;;5093754;28;20024;-75
2023/05/18 07:40:19;;;;;;;0.20;0.20;;;10.50;99.90;;;;;;5092879;28;20498;-75
2023/05/18 07:42:45;;;;;;;0.20;0.20;;;9.30;99.90;;;;;;5091898;28;20016;-75
2023/05/18 07:45:11;;;;;;;0.20;0.20;;;10.50;99.90;;;;;;5091708;28;20028;-78
2023/05/18 07:47:40;;;;;;;0.20;0.20;;;10.30;99.90;;;;;;5090893;28;20027;-75
2023/05/18 07:50:06;;;;;;;0.20;0.20;;;10.50;99.90;;;;;;5092225;28;20042;-74
2023/05/18 07:52:32;;;;;;;0.20;0.20;;;10.50;99.90;;;;;;5089972;28;20343;-76
2023/05/18 07:55:00;;;;;;;0.10;0.10;;;10.60;99.90;;;;;;5083410;28;20048;-75
2023/05/18 07:57:26;;;;;;;0.20;0.20;;;10.60;99.90;;;;;;5083362;28;20039;-74
2023/05/18 07:59:52;;;;;;;0.10;0.10;;;10.60;99.90;;;;;;5091176;28;20035;-74
2023/05/18 08:02:18;;;;;;;0.20;0.20;;;10.70;99.90;;;;;;5096622;28;20016;-74
2023/05/18 08:04:48;;;;;;;0.20;0.20;;;10.80;99.90;;;;;;5091524;28;20016;-77
2023/05/18 08:07:17;;;;;;;0.75;0.75;;;10.80;99.90;;;;;;5096061;28;20032;-83
2023/05/18 08:09:43;;;;;;;0.20;0.20;;;10.80;99.90;;;;;;5094897;28;20028;-77
2023/05/18 08:12:11;;;;;;;0.20;0.20;;;10.70;99.90;;;;;;5101247;28;20119;-78
2023/05/18 08:14:36;;;;;;;0.20;0.20;;;10.70;99.90;;;;;;5101734;28;20027;-75
2023/05/18 08:17:03;;;;;;;0.20;0.20;;;10.70;99.90;;;;;;5105095;28;20016;-82
2023/05/18 08:19:29;;;;;;;0.20;0.20;;;10.60;99.90;;;;;;5100805;28;20048;-76
2023/05/18 08:21:57;;;;;;;0.20;0.20;;;10.70;99.90;;;;;;5105244;28;20051;-76
2023/05/18 08:24:25;;;;;;;0.20;0.20;;;10.80;99.90;;;;;;5106375;28;20023;-77
2023/05/18 08:26:51;;;;;;;0.20;0.20;;;10.80;99.90;;;;;;5107466;28;20045;-74
2023/05/18 08:29:27;;;;;;;0.30;0.30;;;10.70;99.90;;;;;;5105734;28;20037;-77
2023/05/18 08:32:15;;;;;;;0.20;0.20;;;10.60;99.90;;;;;;5104957;28;20465;-74
2023/05/18 08:34:43;;;;;;;0.10;0.10;;;10.80;99.90;;;;;;5104772;28;20050;-75
2023/05/18 08:37:10;;;;;;;0.52;0.52;;;10.70;99.90;;;;;;5105969;28;20072;-75
2023/05/18 08:39:36;;;;;;;0.20;0.20;;;10.80;99.90;;;;;;5105614;28;20024;-79
2023/05/18 08:42:32;;;;;;;0.20;0.20;;;10.90;99.90;;;;;;5105332;28;20012;-77
2023/05/18 08:45:12;;;;;;;0.20;0.20;;;11.00;99.90;;;;;;5104397;28;20080;-77
2023/05/18 08:47:39;;;;;;;0.20;0.20;;;11.10;99.90;;;;;;5107470;28;20020;-79
2023/05/18 08:50:26;;;;;;;0.20;0.20;;;11.10;99.90;;;;;;5106600;28;20039;-76
2023/05/18 08:52:58;;;;;;;0.20;0.20;;;11.20;99.90;;;;;;5108624;28;20044;-76
2023/05/18 08:55:25;;;;;;;0.20;0.20;;;11.20;99.90;;;;;;5095363;28;20093;-75
2023/05/18 08:57:55;;;;;;;0.52;0.52;;;11.30;99.90;;;;;;5091095;28;20028;-74
2023/05/18 09:00:23;;;;;;;0.20;0.20;;;11.40;99.90;;;;;;5098675;28;20024;-75
2023/05/18 09:02:49;;;;;;;0.20;0.20;;;11.50;99.90;;;;;;5101356;28;20024;-75
2023/05/18 09:05:16;;;;;;;0.35;0.35;;;11.50;99.90;;;;;;5091094;28;20031;-75
2023/05/18 09:07:53;;;;;;;0.10;0.10;;;10.90;99.90;;;;;;5099533;28;20012;-77
2023/05/18 09:10:22;;;;;;;0.20;0.20;;;11.50;99.90;;;;;;5098166;28;20020;-80
2023/05/18 09:12:57;;;;;;;0.10;0.10;;;11.50;99.90;;;;;;5102805;28;20028;-76
2023/05/18 09:15:27;;;;;;;0.15;0.15;;;11.40;99.90;;;;;;5101353;28;20038;-80
2023/05/18 09:17:52;;;;;;;0.20;0.20;;;11.60;99.90;;;;;;5101033;28;20538;-77
2023/05/18 09:20:19;;;;;;;0.20;0.20;;;11.50;99.90;;;;;;5096059;28;20134;-74
2023/05/18 09:22:48;;;;;;;0.20;0.20;;;11.60;99.90;;;;;;5088577;28;20040;-79
2023/05/18 09:25:16;;;;;;;0.20;0.20;;;11.70;99.90;;;;;;5087125;28;20020;-79
2023/05/18 09:27:43;;;;;;;0.20;0.20;;;11.90;99.90;;;;;;5083303;28;20039;-86
2023/05/18 09:30:12;;;;;;;0.63;0.63;;;11.90;99.90;;;;;;5081356;28;20098;-83
2023/05/18 09:32:38;;;;;;;0.40;0.40;;;12.10;99.90;;;;;;5081366;28;20038;-74
2023/05/18 09:35:07;;;;;;;0.20;0.20;;;12.20;99.90;;;;;;5081201;28;20557;-80
2023/05/18 09:37:33;;;;;;;0.20;0.20;;;12.60;99.90;;;;;;5081544;28;20076;-83
2023/05/18 09:40:04;;;;;;;0.20;0.20;;;12.40;99.90;;;;;;5080967;28;20027;-75
2023/05/18 09:42:41;;;;;;;0.22;0.22;;;12.40;99.90;;;;;;5080701;28;20026;-79
2023/05/18 09:45:25;;;;;;;0.20;0.20;;;12.40;99.90;;;;;;5079563;28;20018;-84
2023/05/18 09:47:52;;;;;;;0.20;0.20;;;12.30;99.90;;;;;;5081437;28;20224;-84
2023/05/18 09:50:22;;;;;;;0.10;0.10;;;12.30;99.90;;;;;;5084098;28;20024;-75
2023/05/18 09:52:48;;;;;;;0.20;0.20;;;12.20;99.90;;;;;;5083263;28;20039;-81
2023/05/18 09:55:18;;;;;;;0.20;0.20;;;12.30;99.90;;;;;;5086196;28;20098;-79
2023/05/18 09:57:49;;;;;;;0.20;0.20;;;12.20;99.90;;;;;;5082736;28;20012;-82
2023/05/18 10:00:18;;;;;;;0.20;0.20;;;12.30;99.90;;;;;;5077448;28;20021;-85
2023/05/18 10:02:51;;;;;;;0.20;0.20;;;12.40;99.90;;;;;;5077876;28;20073;-79
2023/05/18 10:05:26;;;;;;;1.95;1.88;;;12.40;99.90;;;;;;5076368;28;20415;-85
2023/05/18 10:07:52;;;;;;;0.40;0.40;;;12.50;99.90;;;;;;5078082;28;20024;-77
2023/05/18 10:10:20;;;;;;;0.20;0.20;;;12.40;99.90;;;;;;5076367;28;20028;-77
2023/05/18 10:12:49;;;;;;;0.20;0.20;;;12.60;99.90;;;;;;5077362;28;20103;-84
2023/05/18 10:15:16;;;;;;;0.20;0.20;;;12.70;99.90;;;;;;5077475;28;20031;-74
2023/05/18 10:17:43;;;;;;;0.20;0.20;;;12.80;99.90;;;;;;5076901;28;20266;-77
2023/05/18 10:20:10;;;;;;;0.20;0.20;;;12.90;99.90;;;;;;5077070;28;20028;-75
2023/05/18 10:22:36;;;;;;;0.20;0.20;;;13.00;99.90;;;;;;5075630;28;20051;-80
2023/05/18 10:25:07;;;;;;;0.20;0.20;;;13.10;99.90;;;;;;5077109;28;20081;-84
2023/05/18 10:27:35;;;;;;;0.20;0.20;;;13.00;99.90;;;;;;5077220;28;20674;-84
2023/05/18 10:30:04;;;;;;;0.82;0.82;;;13.20;99.90;;;;;;5077282;28;20047;-79
2023/05/18 10:32:31;;;;;;;0.40;0.40;;;13.30;99.90;;;;;;5076802;28;20042;-81
2023/05/18 10:34:59;;;;;;;0.20;0.20;;;13.20;99.90;;;;;;5077153;28;20510;-74
2023/05/18 10:37:29;;;;;;;0.20;0.20;;;13.50;99.90;;;;;;5077262;28;20052;-74
2023/05/18 10:39:56;;;;;;;0.20;0.20;;;13.50;99.90;;;;;;5076769;28;20025;-83
2023/05/18 10:42:24;;;;;;;0.20;0.20;;;13.60;99.90;;;;;;5077597;28;20017;-86
2023/05/18 10:44:52;;;;;;;0.50;0.50;;;13.70;99.90;;;;;;5076595;28;20051;-75
2023/05/18 10:47:19;;;;;;;0.17;0.17;;;13.80;99.90;;;;;;5077434;28;20024;-75
2023/05/18 10:49:48;;;;;;;0.10;0.10;;;13.80;99.90;;;;;;5077728;28;20024;-82
2023/05/18 10:52:16;;;;;;;0.20;0.20;;;14.00;99.90;;;;;;5077337;28;20521;-80
2023/05/18 10:54:42;;;;;;;0.20;0.20;;;14.20;99.90;;;;;;5077048;28;20680;-77
2023/05/18 10:57:12;;;;;;;0.10;0.10;;;14.60;99.90;;;;;;5076990;28;20047;-80
2023/05/18 10:59:42;;;;;;;0.30;0.30;;;14.50;99.90;;;;;;5077136;28;20055;-72
2023/05/18 11:02:12;;;;;;;0.13;0.13;;;14.70;99.90;;;;;;5076980;28;20021;-72
2023/05/18 11:04:39;;;;;;;0.20;0.20;;;14.70;99.90;;;;;;5077370;28;20115;-74
2023/05/18 11:07:13;;;;;;;0.10;0.10;;;14.60;99.90;;;;;;5076968;28;20027;-72
2023/05/18 11:09:43;;;;;;;0.20;0.20;;;14.90;99.90;;;;;;5076825;28;20040;-72
2023/05/18 11:12:14;;;;;;;0.20;0.20;;;14.90;99.90;;;;;;5077043;28;20095;-73
2023/05/18 11:14:51;;;;;;;0.20;0.20;;;14.80;99.90;;;;;;5077676;28;20040;-75
2023/05/18 11:17:25;;;;;;;0.20;0.20;;;14.60;99.90;;;;;;5079222;28;20220;-79
2023/05/18 11:20:11;;;;;;;0.20;0.20;;;14.60;99.90;;;;;;5080173;28;20016;-74
2023/05/18 11:22:46;;;;;;;0.30;0.30;;;14.50;99.90;;;;;;5080546;28;20019;-73
2023/05/18 11:25:24;;;;;;;0.20;0.20;;;14.40;99.90;;;;;;5080770;28;20023;-73
2023/05/18 11:28:00;;;;;;;0.30;0.30;;;14.40;99.90;;;;;;5079458;28;20012;-74
2023/05/18 11:30:34;;;;;;;0.20;0.20;;;14.20;99.90;;;;;;5080850;28;20031;-83
2023/05/18 11:33:27;;;;;;;0.17;0.17;;;14.10;99.90;;;;;;5080390;28;20623;-74
2023/05/18 11:36:07;;;;;;;0.10;0.10;;;14.10;99.90;;;;;;5080422;28;20031;-77
2023/05/18 11:39:13;;;;;;;0.10;0.10;;;14.00;99.90;;;;;;5079843;28;20035;-73
2023/05/18 11:41:41;;;;;;;0.20;0.20;;;14.10;99.90;;;;;;5079576;28;20716;-72
2023/05/18 11:44:19;;;;;;;0.20;0.20;;;14.10;99.90;;;;;;5078891;28;20035;-72
2023/05/18 11:46:53;;;;;;;0.47;0.47;;;14.10;99.90;;;;;;5079865;28;20020;-72
2023/05/18 11:49:24;;;;;;;0.10;0.10;;;14.10;99.90;;;;;;5080016;28;20047;-73
2023/05/18 11:52:04;;;;;;;0.20;0.20;;;14.00;99.90;;;;;;5078969;28;20517;-79
2023/05/18 11:54:35;;;;;;;0.63;0.63;;;13.90;99.90;;;;;;5080019;28;20043;-74
2023/05/18 11:57:01;;;;;;;0.13;0.13;;;14.00;99.90;;;;;;5079862;28;20070;-75
2023/05/18 11:59:47;;;;;;;0.20;0.20;;;14.10;99.90;;;;;;5080501;28;20075;-75
2023/05/18 12:02:20;;;;;;;0.10;0.10;;;13.90;99.90;;;;;;5079809;28;20560;-73
2023/05/18 12:04:49;;;;;;;0.30;0.30;;;13.80;99.90;;;;;;5080210;28;20077;-77
2023/05/18 12:07:17;;;;;;;0.20;0.20;;;13.60;99.90;;;;;;5080378;28;20546;-74
2023/05/18 12:09:44;;;;;;;0.13;0.13;;;13.70;99.90;;;;;;5079949;28;20027;-76
2023/05/18 12:12:12;;;;;;;0.20;0.20;;;13.60;99.90;;;;;;5080196;28;20692;-73
2023/05/18 12:14:41;;;;;;;0.30;0.30;;;13.70;99.90;;;;;;5080173;28;20608;-73
2023/05/18 12:17:07;;;;;;;0.20;0.20;;;13.80;99.90;;;;;;5079614;28;20274;-79
2023/05/18 12:19:51;;;;;;;1.05;1.05;;;13.90;99.90;;;;;;5078649;28;20016;-74
2023/05/18 12:22:17;;;;;;;;;;;13.90;99.90;;;;;;5080366;28;20016;-72
2023/05/18 12:24:43;;;;;;;0.20;0.20;;;14.00;99.90;;;;;;5079801;28;19904;-74
2023/05/18 12:27:10;;;;;;;0.20;0.20;;;14.10;99.90;;;;;;5078783;28;20008;-76
2023/05/18 12:29:41;;;;;;;0.20;0.20;;;14.20;99.90;;;;;;5079121;28;20653;-72
2023/05/18 12:32:09;;;;;;;0.10;0.10;;;14.20;99.90;;;;;;5078804;28;20036;-74
2023/05/18 12:34:35;;;;;;;1.08;1.08;;;14.20;99.90;;;;;;5079271;28;20018;-78
2023/05/18 12:37:01;;;;;;;0.20;0.20;;;14.30;99.90;;;;;;5079132;28;20031;-73
2023/05/18 12:39:27;;;;;;;0.15;0.15;;;14.40;99.90;;;;;;5078853;28;20024;-73
2023/05/18 12:41:53;;;;;;;0.20;0.20;;;14.30;99.90;;;;;;5079029;28;20630;-73
2023/05/18 12:44:20;;;;;;;0.20;0.20;;;14.50;99.90;;;;;;5079997;28;20024;-75
2023/05/18 12:46:46;;;;;;;0.20;0.20;;;14.50;99.90;;;;;;5079238;28;20016;-72
2023/05/18 12:49:12;;;;;;;0.10;0.10;;;14.50;99.90;;;;;;5078853;28;20026;-72
2023/05/18 12:51:38;;;;;;;0.20;0.20;;;14.60;99.90;;;;;;5078567;28;20024;-72
2023/05/18 12:54:05;;;;;;;0.20;0.20;;;14.50;99.90;;;;;;5077051;28;20027;-73